createdAt,value
2022-08-14T00:00:25.104Z,19.48
2022-08-14T00:05:29.274Z,19.52
2022-08-14T00:10:51.844Z,19.35
2022-08-14T00:15:44.314Z,19.28
2022-08-14T00:20:43.254Z,19.23
2022-08-14T00:25:54.044Z,19.15
2022-08-14T00:30:50.013Z,19.11
2022-08-14T00:36:47.791Z,19.06
2022-08-14T00:40:58.369Z,18.97
2022-08-14T00:46:02.526Z,18.83
2022-08-14T00:51:06.676Z,18.64
2022-08-14T00:56:10.944Z,18.60
2022-08-14T01:01:13.255Z,18.52
2022-08-14T01:06:18.563Z,18.45
2022-08-14T01:11:21.443Z,18.37
2022-08-14T01:16:27.939Z,18.23
2022-08-14T01:21:29.761Z,18.16
2022-08-14T01:26:35.068Z,18.06
2022-08-14T01:31:38.068Z,17.96
2022-08-14T01:36:42.237Z,17.86
2022-08-14T01:41:46.681Z,17.87
2022-08-14T01:46:57.984Z,18.03
2022-08-14T01:51:54.707Z,17.97
2022-08-14T01:56:58.856Z,17.89
2022-08-14T02:02:01.226Z,17.87
2022-08-14T02:07:05.614Z,17.79
2022-08-14T02:12:09.441Z,17.73
2022-08-14T02:17:13.601Z,17.57
2022-08-14T02:22:17.765Z,17.47
2022-08-14T02:28:22.023Z,17.46
2022-08-14T02:32:30.399Z,17.43
2022-08-14T02:37:47.349Z,17.29
2022-08-14T02:42:37.141Z,17.17
2022-08-14T02:47:38.824Z,17.16
2022-08-14T02:53:05.705Z,17.20
2022-08-14T02:57:45.013Z,17.23
2022-08-14T03:02:58.928Z,17.25
2022-08-14T03:07:53.308Z,17.02
2022-08-14T03:12:57.474Z,16.95
2022-08-14T03:18:01.626Z,17.08
2022-08-14T03:23:05.776Z,17.00
2022-08-14T03:28:14.818Z,16.94
2022-08-14T03:33:14.127Z,16.85
2022-08-14T03:39:13.279Z,16.77
2022-08-14T03:43:22.449Z,16.73
2022-08-14T03:48:30.620Z,16.66
2022-08-14T03:53:31.450Z,16.64
2022-08-14T03:58:36.560Z,16.67
2022-08-14T04:03:39.098Z,16.58
2022-08-14T04:08:43.242Z,16.47
2022-08-14T04:13:47.370Z,16.56
2022-08-14T04:18:51.550Z,16.51
2022-08-14T04:23:57.339Z,16.51
2022-08-14T04:29:08.671Z,16.38
2022-08-14T04:34:05.121Z,16.43
2022-08-14T04:39:06.302Z,16.52
2022-08-14T04:44:08.558Z,16.54
2022-08-14T04:49:14.974Z,16.58
2022-08-14T04:54:17.201Z,16.49
2022-08-14T04:59:19.136Z,16.50
2022-08-14T05:04:21.490Z,16.58
2022-08-14T05:09:29.292Z,16.67
2022-08-14T05:14:45.524Z,16.73
2022-08-14T05:19:32.652Z,16.76
2022-08-14T05:24:36.179Z,16.77
2022-08-14T05:29:40.352Z,17.03
2022-08-14T05:34:45.596Z,17.07
2022-08-14T05:39:48.812Z,17.13
2022-08-14T05:44:54.759Z,17.28
2022-08-14T05:49:56.970Z,17.46
2022-08-14T05:55:01.161Z,17.66
2022-08-14T06:00:05.302Z,17.90
2022-08-14T06:05:09.438Z,18.16
2022-08-14T06:10:13.608Z,18.53
2022-08-14T06:15:17.806Z,18.94
2022-08-14T06:20:22.183Z,19.24
2022-08-14T06:25:26.137Z,19.51
2022-08-14T06:30:46.064Z,19.79
2022-08-14T06:35:34.396Z,20.17
2022-08-14T06:40:40.305Z,20.48
2022-08-14T06:45:42.721Z,20.84
2022-08-14T06:50:46.884Z,21.14
2022-08-14T06:55:57.891Z,21.50
2022-08-14T07:00:53.463Z,21.85
2022-08-14T07:05:58.010Z,22.16
2022-08-14T07:11:01.684Z,22.55
2022-08-14T07:16:05.939Z,22.86
2022-08-14T07:21:09.941Z,23.13
2022-08-14T07:26:14.131Z,23.29
2022-08-14T07:31:18.308Z,23.60
2022-08-14T07:36:27.090Z,23.85
2022-08-14T07:41:31.200Z,24.13
2022-08-14T07:46:30.965Z,24.33
2022-08-14T07:51:37.138Z,24.54
2022-08-14T07:56:48.193Z,24.69
2022-08-14T08:01:51.122Z,24.96
2022-08-14T08:06:47.403Z,25.21
2022-08-14T08:11:54.205Z,25.34
2022-08-14T08:16:55.699Z,25.46
2022-08-14T08:21:59.871Z,25.79
2022-08-14T08:27:04.053Z,25.96
2022-08-14T08:32:08.197Z,26.04
2022-08-14T08:37:12.323Z,26.19
2022-08-14T08:42:16.498Z,26.51
2022-08-14T08:47:18.776Z,26.61
2022-08-14T08:52:25.488Z,26.64
2022-08-14T08:57:27.079Z,26.88
2022-08-14T09:02:31.255Z,27.10
2022-08-14T09:07:35.424Z,27.25
2022-08-14T09:12:39.565Z,27.42
2022-08-14T09:17:43.767Z,27.65
2022-08-14T09:22:48.746Z,27.61
2022-08-14T09:27:52.022Z,27.86
2022-08-14T09:32:59.693Z,28.00
2022-08-14T09:38:00.437Z,28.08
2022-08-14T09:43:04.503Z,28.32
2022-08-14T09:48:08.668Z,28.30
2022-08-14T09:53:18.169Z,28.57
2022-08-14T09:58:19.921Z,28.65
2022-08-14T10:03:21.147Z,28.72
2022-08-14T10:08:26.847Z,28.83
2022-08-14T10:13:43.161Z,29.20
2022-08-14T10:18:33.609Z,29.42
2022-08-14T10:23:37.768Z,29.60
2022-08-14T10:29:18.745Z,29.40
2022-08-14T10:33:47.971Z,29.56
2022-08-14T10:38:51.836Z,29.62
2022-08-14T10:43:50.631Z,29.71
2022-08-14T10:48:54.792Z,30.04
2022-08-14T10:53:57.099Z,29.90
2022-08-14T10:59:01.255Z,30.11
2022-08-14T11:04:03.576Z,30.31
2022-08-14T11:09:07.686Z,30.22
2022-08-14T11:14:11.850Z,30.26
2022-08-14T11:19:15.971Z,30.53
2022-08-14T11:24:55.323Z,30.54
2022-08-14T11:29:24.668Z,30.69
2022-08-14T11:34:29.923Z,30.95
2022-08-14T11:39:34.570Z,31.12
2022-08-14T11:44:45.342Z,30.71
2022-08-14T11:49:40.959Z,30.89
2022-08-14T11:54:45.085Z,30.77
2022-08-14T11:59:49.276Z,30.95
2022-08-14T12:04:53.473Z,31.21
2022-08-14T12:09:57.600Z,31.52
2022-08-14T12:15:01.765Z,31.23
2022-08-14T12:20:05.978Z,30.88
2022-08-14T12:25:11.247Z,30.90
2022-08-14T12:30:14.197Z,31.05
2022-08-14T12:35:18.385Z,31.26
2022-08-14T12:40:22.552Z,31.43
2022-08-14T12:45:26.727Z,31.56
2022-08-14T12:50:28.979Z,31.92
2022-08-14T12:56:18.281Z,32.38
2022-08-14T13:00:35.484Z,32.24
2022-08-14T13:05:39.746Z,32.03
2022-08-14T13:10:47.642Z,32.28
2022-08-14T13:15:45.966Z,32.37
2022-08-14T13:20:55.433Z,32.00
2022-08-14T13:25:56.450Z,32.16
2022-08-14T13:30:58.452Z,31.98
2022-08-14T13:36:03.326Z,32.37
2022-08-14T13:41:06.772Z,32.40
2022-08-14T13:46:11.461Z,32.35
2022-08-14T13:51:15.103Z,32.31
2022-08-14T13:56:35.981Z,32.30
2022-08-14T14:01:23.408Z,32.37
2022-08-14T14:06:27.559Z,31.65
2022-08-14T14:11:31.735Z,31.46
2022-08-14T14:16:35.870Z,31.27
2022-08-14T14:21:40.363Z,31.96
2022-08-14T14:26:44.227Z,32.45
2022-08-14T14:31:48.355Z,32.84
2022-08-14T14:36:55.417Z,33.16
2022-08-14T14:41:56.714Z,33.36
2022-08-14T14:47:00.833Z,32.73
2022-08-14T14:52:05.007Z,33.34
2022-08-14T14:57:09.326Z,32.97
2022-08-14T15:02:11.645Z,32.38
2022-08-14T15:07:16.374Z,31.99
2022-08-14T15:12:55.150Z,31.70
2022-08-14T15:17:28.584Z,31.40
2022-08-14T15:22:26.186Z,31.31
2022-08-14T15:27:30.340Z,31.32
2022-08-14T15:32:34.492Z,31.20
2022-08-14T15:37:42.279Z,31.04
2022-08-14T15:42:42.813Z,31.50
2022-08-14T15:47:46.961Z,31.71
2022-08-14T15:52:51.590Z,31.45
2022-08-14T15:58:03.745Z,31.60
2022-08-14T16:02:59.480Z,33.61
2022-08-14T16:08:03.645Z,34.12
2022-08-14T16:13:07.766Z,33.87
2022-08-14T16:18:18.272Z,34.68
2022-08-14T16:23:16.437Z,36.83
2022-08-14T16:28:27.651Z,34.86
2022-08-14T16:33:56.667Z,33.69
2022-08-14T16:38:44.866Z,33.17
2022-08-14T16:43:32.695Z,32.91
2022-08-14T16:48:57.488Z,32.16
2022-08-14T16:53:41.040Z,31.72
2022-08-14T16:58:43.296Z,31.27
2022-08-14T17:03:47.485Z,31.22
2022-08-14T17:08:49.720Z,31.02
2022-08-14T17:14:00.715Z,30.99
2022-08-14T17:19:00.834Z,30.81
2022-08-14T17:24:56.697Z,30.67
2022-08-14T17:29:06.404Z,30.29
2022-08-14T17:34:10.544Z,30.03
2022-08-14T17:39:14.705Z,29.95
2022-08-14T17:44:21.381Z,29.78
2022-08-14T17:49:23.014Z,29.46
2022-08-14T17:54:34.783Z,29.25
2022-08-14T17:59:31.357Z,28.97
2022-08-14T18:04:35.514Z,28.73
2022-08-14T18:14:48.783Z,28.23
2022-08-14T18:19:47.984Z,28.00
2022-08-14T18:24:52.128Z,27.86
2022-08-14T18:29:56.292Z,27.60
2022-08-14T18:35:00.436Z,27.35
2022-08-14T18:40:04.838Z,27.12
2022-08-14T18:45:12.802Z,27.05
2022-08-14T18:50:27.417Z,27.01
2022-08-14T18:55:17.350Z,26.97
2022-08-14T19:00:19.355Z,26.86
2022-08-14T19:05:23.531Z,26.71
2022-08-14T19:10:27.698Z,26.47
2022-08-14T19:15:31.834Z,26.18
2022-08-14T19:20:38.286Z,25.94
2022-08-14T19:25:40.150Z,25.74
2022-08-14T19:30:48.704Z,25.52
2022-08-14T19:35:55.669Z,25.41
2022-08-14T19:40:52.637Z,25.05
2022-08-14T19:45:56.790Z,24.94
2022-08-14T19:51:00.953Z,24.73
2022-08-14T19:56:05.127Z,24.70
2022-08-14T20:01:09.319Z,24.41
2022-08-14T20:06:13.462Z,24.18
2022-08-14T20:12:02.327Z,24.00
2022-08-14T20:16:31.835Z,24.01
2022-08-14T20:21:34.404Z,23.94
2022-08-14T20:26:31.149Z,23.71
2022-08-14T20:31:36.663Z,23.46
2022-08-14T20:36:38.383Z,23.35
2022-08-14T20:41:43.572Z,23.28
2022-08-14T20:46:44.831Z,23.27
2022-08-14T20:51:58.377Z,23.13
2022-08-14T20:56:51.259Z,22.85
2022-08-14T21:01:55.642Z,22.70
2022-08-14T21:07:25.443Z,22.64
2022-08-14T21:12:02.935Z,22.67
2022-08-14T21:17:05.969Z,22.51
2022-08-14T21:22:10.144Z,22.28
2022-08-14T21:27:20.392Z,22.16
2022-08-14T21:32:20.551Z,22.13
2022-08-14T21:37:22.596Z,22.09
2022-08-14T21:42:28.763Z,21.98
2022-08-14T21:47:32.926Z,21.93
2022-08-14T21:52:52.167Z,21.80
2022-08-14T21:57:56.701Z,21.68
2022-08-14T22:02:43.468Z,21.59
2022-08-14T22:07:47.686Z,21.45
2022-08-14T22:13:00.977Z,21.31
2022-08-14T22:17:56.105Z,21.16
2022-08-14T22:23:00.056Z,21.10
2022-08-14T22:28:04.269Z,21.00
2022-08-14T22:33:10.150Z,20.91
2022-08-14T22:38:35.813Z,20.89
2022-08-14T22:43:16.711Z,20.90
2022-08-14T22:48:20.842Z,20.87
2022-08-14T22:53:29.366Z,20.83
2022-08-14T22:58:30.218Z,20.67
2022-08-14T23:03:34.906Z,20.57
2022-08-14T23:08:59.844Z,20.61
2022-08-14T23:13:39.764Z,20.60
2022-08-14T23:18:43.906Z,20.61
2022-08-14T23:23:48.066Z,20.52
2022-08-14T23:28:56.888Z,20.39
2022-08-14T23:33:56.403Z,20.36
2022-08-14T23:39:00.527Z,20.32
2022-08-14T23:44:04.716Z,20.28
2022-08-14T23:49:08.845Z,20.21
2022-08-14T23:54:48.517Z,20.15
2022-08-14T23:59:17.186Z,20.08
